createdAt,value
2023-03-06T00:03:57.571Z,94215.00
2023-03-06T00:07:57.653Z,94213.00
2023-03-06T00:11:57.838Z,94211.00
2023-03-06T00:15:58.005Z,94215.00
2023-03-06T00:19:58.157Z,94211.00
2023-03-06T00:23:58.367Z,94207.00
2023-03-06T00:27:58.528Z,94207.00
2023-03-06T00:31:58.933Z,94203.00
2023-03-06T00:35:58.951Z,94203.00
2023-03-06T00:39:59.112Z,94199.00
2023-03-06T00:43:59.275Z,94193.00
2023-03-06T00:47:59.451Z,94191.00
2023-03-06T00:51:59.644Z,94185.00
2023-03-06T00:55:59.872Z,94184.00
2023-03-06T01:00:00.017Z,94182.00
2023-03-06T01:04:00.184Z,94180.00
2023-03-06T01:08:00.371Z,94176.00
2023-03-06T01:12:00.584Z,94170.00
2023-03-06T01:16:00.737Z,94162.00
2023-03-06T01:20:00.915Z,94156.00
2023-03-06T01:24:01.142Z,94150.00
2023-03-06T01:28:01.267Z,94148.00
2023-03-06T01:32:01.597Z,94144.00
2023-03-06T01:36:01.672Z,94138.00
2023-03-06T01:40:01.883Z,94129.00
2023-03-06T01:44:02.059Z,94127.00
2023-03-06T01:48:02.244Z,94125.00
2023-03-06T01:52:02.447Z,94117.00
2023-03-06T01:56:02.637Z,94109.00
2023-03-06T02:00:02.846Z,94103.00
2023-03-06T02:04:03.018Z,94095.00
2023-03-06T02:08:03.254Z,94093.00
2023-03-06T02:12:03.437Z,94086.00
2023-03-06T02:16:03.669Z,94082.00
2023-03-06T02:20:03.954Z,94082.00
2023-03-06T02:24:04.093Z,94076.00
2023-03-06T02:28:04.254Z,94074.00
2023-03-06T02:32:04.531Z,94066.00
2023-03-06T02:36:04.687Z,94066.00
2023-03-06T02:40:04.854Z,94060.00
2023-03-06T02:44:05.069Z,94054.00
2023-03-06T02:48:05.239Z,94052.00
2023-03-06T02:52:05.470Z,94046.00
2023-03-06T02:56:05.665Z,94041.00
2023-03-06T03:00:05.872Z,94037.00
2023-03-06T03:04:06.142Z,94027.00
2023-03-06T03:08:06.256Z,94023.00
2023-03-06T03:12:06.519Z,94019.00
2023-03-06T03:16:06.711Z,94015.00
2023-03-06T03:20:06.909Z,94013.00
2023-03-06T03:24:07.124Z,94005.00
2023-03-06T03:28:07.309Z,93999.00
2023-03-06T03:32:07.545Z,93999.00
2023-03-06T03:36:07.467Z,93994.00
2023-03-06T03:40:07.428Z,93988.00
2023-03-06T03:44:07.400Z,93982.00
2023-03-06T03:48:07.389Z,93976.00
2023-03-06T03:52:07.355Z,93970.00
2023-03-06T03:56:07.259Z,93964.00
2023-03-06T04:00:07.251Z,93960.00
2023-03-06T04:04:07.226Z,93952.00
2023-03-06T04:08:07.196Z,93949.00
2023-03-06T04:12:07.123Z,93947.00
2023-03-06T04:16:07.214Z,93943.00
2023-03-06T04:20:07.439Z,93941.00
2023-03-06T04:24:07.642Z,93933.00
2023-03-06T04:28:07.890Z,93929.00
2023-03-06T04:32:08.128Z,93929.00
2023-03-06T04:36:08.281Z,93923.00
2023-03-06T04:40:08.476Z,93915.00
2023-03-06T04:44:08.680Z,93915.00
2023-03-06T04:48:08.896Z,93921.00
2023-03-06T04:52:09.066Z,93917.00
2023-03-06T04:56:09.305Z,93911.00
2023-03-06T05:00:09.457Z,93911.00
2023-03-06T05:04:09.645Z,93909.00
2023-03-06T05:08:09.818Z,93904.00
2023-03-06T05:12:09.989Z,93902.00
2023-03-06T05:16:10.253Z,93896.00
2023-03-06T05:20:10.304Z,93894.00
2023-03-06T05:24:10.486Z,93888.00
2023-03-06T05:28:10.649Z,93892.00
2023-03-06T05:32:10.926Z,93892.00
2023-03-06T05:36:11.004Z,93894.00
2023-03-06T05:40:11.169Z,93892.00
2023-03-06T05:44:11.324Z,93894.00
2023-03-06T05:48:11.476Z,93894.00
2023-03-06T05:52:11.663Z,93896.00
2023-03-06T05:56:11.784Z,93898.00
2023-03-06T06:00:11.940Z,93900.00
2023-03-06T06:04:12.050Z,93898.00
2023-03-06T06:08:12.211Z,93898.00
2023-03-06T06:12:12.348Z,93898.00
2023-03-06T06:16:12.560Z,93904.00
2023-03-06T06:20:12.598Z,93905.00
2023-03-06T06:24:12.723Z,93905.00
2023-03-06T06:28:12.851Z,93905.00
2023-03-06T06:32:13.076Z,93909.00
2023-03-06T06:36:13.086Z,93905.00
2023-03-06T06:40:13.230Z,93905.00
2023-03-06T06:44:13.782Z,93902.00
2023-03-06T06:48:16.038Z,93902.00
2023-03-06T06:52:13.797Z,93907.00
2023-03-06T06:56:13.340Z,93909.00
2023-03-06T07:00:13.769Z,93913.00
2023-03-06T07:04:13.338Z,93909.00
2023-03-06T07:08:13.288Z,93913.00
2023-03-06T07:12:13.170Z,93911.00
2023-03-06T07:16:13.356Z,93913.00
2023-03-06T07:20:13.102Z,93909.00
2023-03-06T07:24:13.047Z,93913.00
2023-03-06T07:28:13.105Z,93913.00
2023-03-06T07:32:13.071Z,93919.00
2023-03-06T07:36:14.057Z,93915.00
2023-03-06T07:40:13.020Z,93925.00
2023-03-06T07:44:13.357Z,93927.00
2023-03-06T07:48:13.842Z,93929.00
2023-03-06T07:52:13.790Z,93933.00
2023-03-06T07:56:13.795Z,93929.00
2023-03-06T08:00:13.352Z,93923.00
2023-03-06T08:04:13.549Z,93933.00
2023-03-06T08:08:13.252Z,93931.00
2023-03-06T08:12:15.174Z,93935.00
2023-03-06T08:16:13.240Z,93937.00
2023-03-06T08:20:13.166Z,93929.00
2023-03-06T08:24:13.311Z,93927.00
2023-03-06T08:28:13.056Z,93929.00
2023-03-06T08:32:13.079Z,93935.00
2023-03-06T08:36:12.997Z,93931.00
2023-03-06T08:40:12.973Z,93929.00
2023-03-06T08:44:13.327Z,93929.00
2023-03-06T08:48:12.876Z,93929.00
2023-03-06T08:52:13.320Z,93937.00
2023-03-06T08:56:12.795Z,93935.00
2023-03-06T09:00:12.816Z,93933.00
2023-03-06T09:04:12.907Z,93933.00
2023-03-06T09:08:13.311Z,93929.00
2023-03-06T09:12:13.232Z,93933.00
2023-03-06T09:16:13.472Z,93923.00
2023-03-06T09:20:13.517Z,93921.00
2023-03-06T09:24:13.711Z,93921.00
2023-03-06T09:28:13.865Z,93923.00
2023-03-06T09:32:14.062Z,93921.00
2023-03-06T09:36:14.213Z,93923.00
2023-03-06T09:40:14.878Z,93923.00
2023-03-06T09:44:14.878Z,93917.00
2023-03-06T09:48:14.927Z,93909.00
2023-03-06T09:52:14.854Z,93909.00
2023-03-06T09:56:14.939Z,93902.00
2023-03-06T10:00:15.370Z,93902.00
2023-03-06T10:04:14.938Z,93904.00
2023-03-06T10:08:15.352Z,93894.00
2023-03-06T10:12:14.936Z,93888.00
2023-03-06T10:16:14.949Z,93892.00
2023-03-06T10:20:15.371Z,93886.00
2023-03-06T10:24:14.859Z,93884.00
2023-03-06T10:28:14.898Z,93874.00
2023-03-06T10:32:14.807Z,93870.00
2023-03-06T10:36:14.936Z,93868.00
2023-03-06T10:40:14.868Z,93857.00
2023-03-06T10:44:14.902Z,93851.00
2023-03-06T10:48:14.652Z,93851.00
2023-03-06T10:52:14.871Z,93835.00
2023-03-06T10:56:14.885Z,93813.00
2023-03-06T11:00:14.671Z,93808.00
2023-03-06T11:04:14.808Z,93800.00
2023-03-06T11:08:14.899Z,93802.00
2023-03-06T11:12:15.369Z,93792.00
2023-03-06T11:16:15.325Z,93788.00
2023-03-06T11:20:15.433Z,93784.00
2023-03-06T11:24:15.886Z,93766.00
2023-03-06T11:28:15.674Z,93766.00
2023-03-06T11:32:15.782Z,93757.00
2023-03-06T11:36:15.903Z,93747.00
2023-03-06T11:40:16.402Z,93739.00
2023-03-06T11:44:16.401Z,93733.00
2023-03-06T11:48:16.233Z,93729.00
2023-03-06T11:52:16.398Z,93716.00
2023-03-06T11:56:16.577Z,93710.00
2023-03-06T12:00:16.852Z,93706.00
2023-03-06T12:04:16.790Z,93694.00
2023-03-06T12:08:16.702Z,93690.00
2023-03-06T12:16:16.661Z,93682.00
2023-03-06T12:20:16.619Z,93678.00
2023-03-06T12:24:16.550Z,93680.00
2023-03-06T12:28:16.551Z,93680.00
2023-03-06T12:32:17.289Z,93678.00
2023-03-06T12:36:16.937Z,93671.00
2023-03-06T12:40:16.640Z,93667.00
2023-03-06T12:44:16.578Z,93663.00
2023-03-06T12:48:16.539Z,93659.00
2023-03-06T12:52:18.696Z,93653.00
2023-03-06T12:56:16.451Z,93649.00
2023-03-06T13:00:16.451Z,93645.00
2023-03-06T13:04:16.397Z,93643.00
2023-03-06T13:08:16.387Z,93639.00
2023-03-06T13:12:16.310Z,93631.00
2023-03-06T13:16:16.379Z,93629.00
2023-03-06T13:20:16.272Z,93631.00
2023-03-06T13:24:16.449Z,93629.00
2023-03-06T13:28:16.167Z,93629.00
2023-03-06T13:32:16.484Z,93625.00
2023-03-06T13:36:16.101Z,93612.00
2023-03-06T13:40:16.246Z,93614.00
2023-03-06T13:44:16.203Z,93608.00
2023-03-06T13:48:37.397Z,93608.00
2023-03-06T13:52:17.099Z,93600.00
2023-03-06T13:56:16.138Z,93604.00
2023-03-06T14:00:16.187Z,93608.00
2023-03-06T14:04:16.110Z,93604.00
2023-03-06T14:08:16.091Z,93612.00
2023-03-06T14:12:16.022Z,93616.00
2023-03-06T14:16:16.073Z,93612.00
2023-03-06T14:20:15.934Z,93625.00
2023-03-06T14:24:15.893Z,93614.00
2023-03-06T14:28:15.850Z,93614.00
2023-03-06T14:32:15.914Z,93627.00
2023-03-06T14:36:15.833Z,93629.00
2023-03-06T14:40:15.771Z,93627.00
2023-03-06T14:44:15.732Z,93633.00
2023-03-06T14:48:15.701Z,93637.00
2023-03-06T14:52:15.696Z,93631.00
2023-03-06T14:56:15.633Z,93639.00
2023-03-06T15:00:15.627Z,93631.00
2023-03-06T15:04:16.001Z,93637.00
2023-03-06T15:08:15.601Z,93641.00
2023-03-06T15:12:15.524Z,93649.00
2023-03-06T15:16:15.647Z,93645.00
2023-03-06T15:20:15.765Z,93645.00
2023-03-06T15:24:16.583Z,93651.00
2023-03-06T15:28:16.150Z,93647.00
2023-03-06T15:32:16.168Z,93665.00
2023-03-06T15:36:16.093Z,93671.00
2023-03-06T15:40:16.083Z,93667.00
2023-03-06T15:44:16.058Z,93671.00
2023-03-06T15:48:16.031Z,93665.00
2023-03-06T15:52:15.970Z,93667.00
2023-03-06T15:56:15.914Z,93671.00
2023-03-06T16:00:26.942Z,93676.00
2023-03-06T16:04:16.951Z,93674.00
2023-03-06T16:08:15.871Z,93672.00
2023-03-06T16:12:15.978Z,93676.00
2023-03-06T16:16:15.856Z,93676.00
2023-03-06T16:20:15.718Z,93682.00
2023-03-06T16:24:15.695Z,93684.00
2023-03-06T16:28:15.715Z,93686.00
2023-03-06T16:32:15.803Z,93696.00
2023-03-06T16:36:15.591Z,93698.00
2023-03-06T16:40:15.581Z,93694.00
2023-03-06T16:44:15.519Z,93698.00
2023-03-06T16:48:15.488Z,93704.00
2023-03-06T16:52:15.464Z,93710.00
2023-03-06T16:56:15.425Z,93716.00
2023-03-06T17:00:15.362Z,93719.00
2023-03-06T17:04:15.326Z,93725.00
2023-03-06T17:08:15.294Z,93725.00
2023-03-06T17:12:15.262Z,93735.00
2023-03-06T17:16:15.229Z,93741.00
2023-03-06T17:20:15.207Z,93743.00
2023-03-06T17:24:15.129Z,93751.00
2023-03-06T17:28:15.122Z,93749.00
2023-03-06T17:32:15.166Z,93757.00
2023-03-06T17:36:15.030Z,93761.00
2023-03-06T17:40:15.012Z,93765.00
2023-03-06T17:44:15.037Z,93770.00
2023-03-06T17:48:15.091Z,93772.00
2023-03-06T17:52:15.124Z,93780.00
2023-03-06T17:56:15.155Z,93778.00
2023-03-06T18:00:15.238Z,93784.00
2023-03-06T18:04:15.261Z,93784.00
2023-03-06T18:08:15.334Z,93792.00
2023-03-06T18:12:15.428Z,93792.00
2023-03-06T18:16:15.575Z,93798.00
2023-03-06T18:20:15.624Z,93802.00
2023-03-06T18:24:15.738Z,93802.00
2023-03-06T18:28:15.822Z,93804.00
2023-03-06T18:32:16.015Z,93802.00
2023-03-06T18:36:16.038Z,93804.00
2023-03-06T18:40:16.114Z,93813.00
2023-03-06T18:44:16.248Z,93813.00
2023-03-06T18:48:16.375Z,93813.00
2023-03-06T18:52:16.491Z,93813.00
2023-03-06T18:56:16.608Z,93819.00
2023-03-06T19:00:16.722Z,93819.00
2023-03-06T19:04:16.857Z,93821.00
2023-03-06T19:08:16.967Z,93827.00
2023-03-06T19:12:17.088Z,93831.00
2023-03-06T19:16:17.260Z,93843.00
2023-03-06T19:20:17.354Z,93845.00
2023-03-06T19:24:17.529Z,93851.00
2023-03-06T19:28:17.694Z,93843.00
2023-03-06T19:32:17.900Z,93847.00
2023-03-06T19:36:17.994Z,93849.00
2023-03-06T19:40:18.222Z,93857.00
2023-03-06T19:44:18.351Z,93859.00
2023-03-06T19:48:18.489Z,93866.00
2023-03-06T19:52:18.695Z,93864.00
2023-03-06T19:56:18.915Z,93870.00
2023-03-06T20:00:19.089Z,93872.00
2023-03-06T20:04:19.278Z,93868.00
2023-03-06T20:08:19.468Z,93872.00
2023-03-06T20:12:19.650Z,93872.00
2023-03-06T20:16:19.860Z,93874.00
2023-03-06T20:20:20.014Z,93872.00
2023-03-06T20:24:20.203Z,93882.00
2023-03-06T20:28:20.397Z,93886.00
2023-03-06T20:32:20.666Z,93888.00
2023-03-06T20:36:20.787Z,93892.00
2023-03-06T20:40:20.761Z,93890.00
2023-03-06T20:44:20.761Z,93896.00
2023-03-06T20:48:20.748Z,93898.00
2023-03-06T20:52:20.726Z,93902.00
2023-03-06T20:56:20.736Z,93905.00
2023-03-06T21:00:20.773Z,93902.00
2023-03-06T21:04:20.752Z,93907.00
2023-03-06T21:08:20.785Z,93909.00
2023-03-06T21:12:20.739Z,93905.00
2023-03-06T21:16:20.805Z,93904.00
2023-03-06T21:20:20.790Z,93898.00
2023-03-06T21:24:21.420Z,93892.00
2023-03-06T21:28:20.789Z,93894.00
2023-03-06T21:32:20.835Z,93896.00
2023-03-06T21:36:20.825Z,93892.00
2023-03-06T21:40:20.879Z,93892.00
2023-03-06T21:44:20.896Z,93888.00
2023-03-06T21:48:20.906Z,93882.00
2023-03-06T21:52:20.924Z,93884.00
2023-03-06T21:56:21.111Z,93872.00
2023-03-06T22:00:21.088Z,93870.00
2023-03-06T22:04:21.023Z,93864.00
2023-03-06T22:08:20.995Z,93864.00
2023-03-06T22:12:20.937Z,93860.00
2023-03-06T22:16:21.010Z,93859.00
2023-03-06T22:20:20.858Z,93860.00
2023-03-06T22:24:20.843Z,93860.00
2023-03-06T22:28:20.797Z,93859.00
2023-03-06T22:32:20.824Z,93857.00
2023-03-06T22:36:20.858Z,93853.00
2023-03-06T22:40:20.853Z,93859.00
2023-03-06T22:44:20.834Z,93859.00
2023-03-06T22:48:20.764Z,93851.00
2023-03-06T22:52:20.742Z,93845.00
2023-03-06T22:56:20.711Z,93847.00
2023-03-06T23:00:20.656Z,93849.00
2023-03-06T23:04:20.656Z,93847.00
2023-03-06T23:08:20.579Z,93849.00
2023-03-06T23:12:20.551Z,93845.00
2023-03-06T23:16:20.499Z,93843.00
2023-03-06T23:20:20.498Z,93839.00
2023-03-06T23:24:20.687Z,93839.00
2023-03-06T23:28:20.856Z,93839.00
2023-03-06T23:32:21.065Z,93839.00
2023-03-06T23:36:21.205Z,93841.00
2023-03-06T23:40:21.194Z,93833.00
2023-03-06T23:44:21.129Z,93835.00
2023-03-06T23:48:21.118Z,93835.00
2023-03-06T23:52:21.062Z,93835.00
2023-03-06T23:56:21.053Z,93833.00
